sensor_id;sensor_type;location;lat;lon;timestamp;pressure;altitude;pressure_sealevel;temperature;humidity
55610;BME280;41486;52.502;13.486;2023-04-15T00:00:55;100025.75;;;7.94;100.00
55610;BME280;41486;52.502;13.486;2023-04-15T00:03:24;100025.53;;;7.97;100.00
55610;BME280;41486;52.502;13.486;2023-04-15T00:05:52;100025.41;;;7.98;100.00
55610;BME280;41486;52.502;13.486;2023-04-15T00:08:21;100018.72;;;7.94;100.00
55610;BME280;41486;52.502;13.486;2023-04-15T00:10:49;100020.06;;;8.00;100.00
55610;BME280;41486;52.502;13.486;2023-04-15T00:13:18;100012.91;;;8.02;100.00
55610;BME280;41486;52.502;13.486;2023-04-15T00:15:46;100012.91;;;8.02;100.00
55610;BME280;41486;52.502;13.486;2023-04-15T00:18:14;100015.41;;;7.92;100.00
55610;BME280;41486;52.502;13.486;2023-04-15T00:20:42;100006.13;;;7.99;100.00
55610;BME280;41486;52.502;13.486;2023-04-15T00:23:10;100018.16;;;8.02;100.00
55610;BME280;41486;52.502;13.486;2023-04-15T00:25:38;100015.19;;;8.07;100.00
55610;BME280;41486;52.502;13.486;2023-04-15T00:28:06;100009.69;;;8.10;100.00
55610;BME280;41486;52.502;13.486;2023-04-15T00:30:37;100013.38;;;8.07;100.00
55610;BME280;41486;52.502;13.486;2023-04-15T00:33:05;100011.59;;;7.96;100.00
55610;BME280;41486;52.502;13.486;2023-04-15T00:35:33;100009.44;;;8.01;100.00
55610;BME280;41486;52.502;13.486;2023-04-15T00:38:02;100004.13;;;8.03;100.00
55610;BME280;41486;52.502;13.486;2023-04-15T00:40:30;100009.81;;;8.08;100.00
55610;BME280;41486;52.502;13.486;2023-04-15T00:42:59;100010.91;;;8.05;100.00
55610;BME280;41486;52.502;13.486;2023-04-15T00:45:27;100008.63;;;8.01;100.00
55610;BME280;41486;52.502;13.486;2023-04-15T00:47:57;100014.59;;;8.03;100.00
55610;BME280;41486;52.502;13.486;2023-04-15T00:50:25;100010.69;;;8.09;100.00
55610;BME280;41486;52.502;13.486;2023-04-15T00:52:53;100007.31;;;8.07;100.00
55610;BME280;41486;52.502;13.486;2023-04-15T00:55:21;99995.03;;;8.07;100.00
55610;BME280;41486;52.502;13.486;2023-04-15T00:57:49;100001.50;;;8.03;100.00
55610;BME280;41486;52.502;13.486;2023-04-15T01:00:19;99994.09;;;8.08;100.00
55610;BME280;41486;52.502;13.486;2023-04-15T01:02:49;99998.75;;;8.04;100.00
55610;BME280;41486;52.502;13.486;2023-04-15T01:05:19;100002.81;;;8.09;100.00
55610;BME280;41486;52.502;13.486;2023-04-15T01:07:47;99991.34;;;8.10;100.00
55610;BME280;41486;52.502;13.486;2023-04-15T01:10:15;99992.09;;;8.00;100.00
55610;BME280;41486;52.502;13.486;2023-04-15T01:12:43;99990.06;;;8.04;100.00
55610;BME280;41486;52.502;13.486;2023-04-15T01:15:11;99995.03;;;8.07;100.00
55610;BME280;41486;52.502;13.486;2023-04-15T01:17:39;99984.47;;;8.09;100.00
55610;BME280;41486;52.502;13.486;2023-04-15T01:20:08;99987.66;;;8.01;100.00
55610;BME280;41486;52.502;13.486;2023-04-15T01:22:39;99982.66;;;7.98;100.00
55610;BME280;41486;52.502;13.486;2023-04-15T01:25:11;99983.75;;;8.07;100.00
55610;BME280;41486;52.502;13.486;2023-04-15T01:27:41;99988.84;;;8.08;100.00
55610;BME280;41486;52.502;13.486;2023-04-15T01:30:09;99977.44;;;8.09;100.00
55610;BME280;41486;52.502;13.486;2023-04-15T01:32:37;99976.09;;;8.03;100.00
55610;BME280;41486;52.502;13.486;2023-04-15T01:35:24;99976.09;;;8.03;100.00
55610;BME280;41486;52.502;13.486;2023-04-15T01:37:53;99981.00;;;8.08;100.00
55610;BME280;41486;52.502;13.486;2023-04-15T01:40:21;99974.94;;;8.08;100.00
55610;BME280;41486;52.502;13.486;2023-04-15T01:42:52;99971.38;;;8.09;100.00
55610;BME280;41486;52.502;13.486;2023-04-15T01:45:21;99976.47;;;8.10;100.00
55610;BME280;41486;52.502;13.486;2023-04-15T01:47:50;99973.38;;;8.05;100.00
55610;BME280;41486;52.502;13.486;2023-04-15T01:50:20;99971.38;;;8.09;100.00
55610;BME280;41486;52.502;13.486;2023-04-15T01:52:49;99974.69;;;8.11;100.00
55610;BME280;41486;52.502;13.486;2023-04-15T01:55:21;99967.06;;;8.08;100.00
55610;BME280;41486;52.502;13.486;2023-04-15T01:57:51;99970.28;;;8.00;100.00
55610;BME280;41486;52.502;13.486;2023-04-15T02:00:21;99974.22;;;8.05;100.00
55610;BME280;41486;52.502;13.486;2023-04-15T02:02:52;99968.16;;;8.05;100.00
55610;BME280;41486;52.502;13.486;2023-04-15T02:05:21;99971.59;;;8.05;100.00
55610;BME280;41486;52.502;13.486;2023-04-15T02:07:51;99975.41;;;8.13;100.00
55610;BME280;41486;52.502;13.486;2023-04-15T02:10:20;99967.91;;;8.08;100.00
55610;BME280;41486;52.502;13.486;2023-04-15T02:12:49;99972.66;;;8.14;100.00
55610;BME280;41486;52.502;13.486;2023-04-15T02:15:20;99961.22;;;8.15;100.00
55610;BME280;41486;52.502;13.486;2023-04-15T02:17:50;99969.69;;;8.08;100.00
55610;BME280;41486;52.502;13.486;2023-04-15T02:20:22;99964.09;;;8.12;100.00
55610;BME280;41486;52.502;13.486;2023-04-15T02:22:51;99968.38;;;8.13;100.00
55610;BME280;41486;52.502;13.486;2023-04-15T02:25:21;99962.44;;;8.11;100.00
55610;BME280;41486;52.502;13.486;2023-04-15T02:27:50;99965.66;;;8.15;100.00
55610;BME280;41486;52.502;13.486;2023-04-15T02:30:21;99966.47;;;8.15;100.00
55610;BME280;41486;52.502;13.486;2023-04-15T02:32:52;99965.41;;;8.18;100.00
55610;BME280;41486;52.502;13.486;2023-04-15T02:35:25;99964.56;;;8.17;100.00
55610;BME280;41486;52.502;13.486;2023-04-15T02:37:55;99967.31;;;8.16;100.00
55610;BME280;41486;52.502;13.486;2023-04-15T02:40:24;99962.41;;;8.23;100.00
55610;BME280;41486;52.502;13.486;2023-04-15T02:42:53;99960.63;;;8.12;100.00
55610;BME280;41486;52.502;13.486;2023-04-15T02:45:24;99965.03;;;8.23;100.00
55610;BME280;41486;52.502;13.486;2023-04-15T02:47:54;99971.13;;;8.23;100.00
55610;BME280;41486;52.502;13.486;2023-04-15T02:50:24;99973.75;;;8.23;100.00
55610;BME280;41486;52.502;13.486;2023-04-15T02:52:54;99971.94;;;8.24;100.00
55610;BME280;41486;52.502;13.486;2023-04-15T02:55:23;99976.25;;;8.25;100.00
55610;BME280;41486;52.502;13.486;2023-04-15T02:57:52;99972.44;;;8.29;100.00
55610;BME280;41486;52.502;13.486;2023-04-15T03:00:22;99974.94;;;8.30;100.00
55610;BME280;41486;52.502;13.486;2023-04-15T03:02:57;99977.69;;;8.29;100.00
55610;BME280;41486;52.502;13.486;2023-04-15T03:05:27;99972.53;;;8.27;100.00
55610;BME280;41486;52.502;13.486;2023-04-15T03:07:56;99981.97;;;8.30;100.00
55610;BME280;41486;52.502;13.486;2023-04-15T03:10:26;99970.53;;;8.31;100.00
55610;BME280;41486;52.502;13.486;2023-04-15T03:12:55;99974.94;;;8.30;100.00
55610;BME280;41486;52.502;13.486;2023-04-15T03:15:24;99971.38;;;8.31;100.00
55610;BME280;41486;52.502;13.486;2023-04-15T03:17:56;99980.66;;;8.35;100.00
55610;BME280;41486;52.502;13.486;2023-04-15T03:20:25;99975.06;;;8.29;100.00
55610;BME280;41486;52.502;13.486;2023-04-15T03:22:55;99983.78;;;8.41;100.00
55610;BME280;41486;52.502;13.486;2023-04-15T03:25:25;99982.78;;;8.42;100.00
55610;BME280;41486;52.502;13.486;2023-04-15T03:27:54;99977.19;;;8.46;100.00
55610;BME280;41486;52.502;13.486;2023-04-15T03:30:23;99981.16;;;8.41;100.00
55610;BME280;41486;52.502;13.486;2023-04-15T03:32:53;99977.81;;;8.50;100.00
55610;BME280;41486;52.502;13.486;2023-04-15T03:35:23;99981.03;;;8.53;100.00
55610;BME280;41486;52.502;13.486;2023-04-15T03:37:53;99979.97;;;8.56;100.00
55610;BME280;41486;52.502;13.486;2023-04-15T03:40:22;99975.91;;;8.52;100.00
55610;BME280;41486;52.502;13.486;2023-04-15T03:42:51;99970.06;;;8.48;100.00
55610;BME280;41486;52.502;13.486;2023-04-15T03:45:20;99971.03;;;8.47;100.00
55610;BME280;41486;52.502;13.486;2023-04-15T03:47:50;99973.88;;;8.44;100.00
55610;BME280;41486;52.502;13.486;2023-04-15T03:50:19;99969.25;;;8.48;100.00
55610;BME280;41486;52.502;13.486;2023-04-15T03:52:50;99970.81;;;8.50;100.00
55610;BME280;41486;52.502;13.486;2023-04-15T03:55:19;99979.13;;;8.56;100.00
55610;BME280;41486;52.502;13.486;2023-04-15T03:57:48;99985.81;;;8.60;100.00
55610;BME280;41486;52.502;13.486;2023-04-15T04:00:18;99977.69;;;8.63;100.00
55610;BME280;41486;52.502;13.486;2023-04-15T04:02:47;99974.25;;;8.62;100.00
55610;BME280;41486;52.502;13.486;2023-04-15T04:05:16;99988.75;;;8.66;100.00
55610;BME280;41486;52.502;13.486;2023-04-15T04:07:46;99978.63;;;8.62;100.00
55610;BME280;41486;52.502;13.486;2023-04-15T04:10:16;99985.19;;;8.67;100.00
55610;BME280;41486;52.502;13.486;2023-04-15T04:12:45;99985.09;;;8.69;100.00
55610;BME280;41486;52.502;13.486;2023-04-15T04:15:14;99977.91;;;8.71;100.00
55610;BME280;41486;52.502;13.486;2023-04-15T04:17:44;99979.44;;;8.74;100.00
55610;BME280;41486;52.502;13.486;2023-04-15T04:20:13;99980.91;;;8.78;100.00
55610;BME280;41486;52.502;13.486;2023-04-15T04:22:42;99982.78;;;8.76;100.00
55610;BME280;41486;52.502;13.486;2023-04-15T04:25:12;99981.50;;;8.70;100.00
55610;BME280;41486;52.502;13.486;2023-04-15T04:27:43;99991.84;;;8.83;100.00
55610;BME280;41486;52.502;13.486;2023-04-15T04:30:12;99988.03;;;8.76;100.00
55610;BME280;41486;52.502;13.486;2023-04-15T04:32:41;99983.75;;;8.75;100.00
55610;BME280;41486;52.502;13.486;2023-04-15T04:35:11;99981.63;;;8.80;100.00
55610;BME280;41486;52.502;13.486;2023-04-15T04:37:40;99985.91;;;8.81;100.00
55610;BME280;41486;52.502;13.486;2023-04-15T04:40:10;99982.88;;;8.86;100.00
55610;BME280;41486;52.502;13.486;2023-04-15T04:42:40;99981.47;;;8.81;100.00
55610;BME280;41486;52.502;13.486;2023-04-15T04:45:10;99983.97;;;8.83;100.00
55610;BME280;41486;52.502;13.486;2023-04-15T04:47:40;99994.09;;;8.88;100.00
55610;BME280;41486;52.502;13.486;2023-04-15T04:50:10;99990.75;;;8.86;100.00
55610;BME280;41486;52.502;13.486;2023-04-15T04:52:39;100000.78;;;8.92;100.00
55610;BME280;41486;52.502;13.486;2023-04-15T04:55:08;99994.09;;;8.88;100.00
55610;BME280;41486;52.502;13.486;2023-04-15T04:57:37;100001.03;;;8.89;100.00
55610;BME280;41486;52.502;13.486;2023-04-15T05:00:08;100000.53;;;8.95;100.00
55610;BME280;41486;52.502;13.486;2023-04-15T05:02:38;100001.38;;;8.95;100.00
55610;BME280;41486;52.502;13.486;2023-04-15T05:05:09;100012.81;;;8.94;100.00
55610;BME280;41486;52.502;13.486;2023-04-15T05:07:40;100016.41;;;8.93;100.00
55610;BME280;41486;52.502;13.486;2023-04-15T05:10:09;100007.56;;;8.94;100.00
55610;BME280;41486;52.502;13.486;2023-04-15T05:12:38;100015.31;;;8.96;100.00
55610;BME280;41486;52.502;13.486;2023-04-15T05:15:08;100012.47;;;8.99;100.00
55610;BME280;41486;52.502;13.486;2023-04-15T05:17:39;100006.72;;;9.05;100.00
55610;BME280;41486;52.502;13.486;2023-04-15T05:20:09;100013.63;;;9.06;100.00
55610;BME280;41486;52.502;13.486;2023-04-15T05:22:38;100019.84;;;9.05;100.00
55610;BME280;41486;52.502;13.486;2023-04-15T05:25:08;100018.63;;;9.09;100.00
55610;BME280;41486;52.502;13.486;2023-04-15T05:27:37;100012.91;;;9.15;100.00
55610;BME280;41486;52.502;13.486;2023-04-15T05:30:07;100011.09;;;9.16;100.00
55610;BME280;41486;52.502;13.486;2023-04-15T05:32:41;100014.31;;;9.20;100.00
55610;BME280;41486;52.502;13.486;2023-04-15T05:35:10;100020.41;;;9.20;100.00
55610;BME280;41486;52.502;13.486;2023-04-15T05:37:40;100015.59;;;9.25;100.00
55610;BME280;41486;52.502;13.486;2023-04-15T05:40:09;100025.16;;;9.26;100.00
55610;BME280;41486;52.502;13.486;2023-04-15T05:42:38;100024.19;;;9.27;100.00
55610;BME280;41486;52.502;13.486;2023-04-15T05:45:09;100022.16;;;9.31;100.00
55610;BME280;41486;52.502;13.486;2023-04-15T05:47:38;100014.59;;;9.38;100.00
55610;BME280;41486;52.502;13.486;2023-04-15T05:50:09;100017.69;;;9.43;100.00
55610;BME280;41486;52.502;13.486;2023-04-15T05:52:39;100014.72;;;9.36;100.00
55610;BME280;41486;52.502;13.486;2023-04-15T05:55:08;100014.13;;;9.44;100.00
55610;BME280;41486;52.502;13.486;2023-04-15T05:57:37;100012.19;;;9.46;100.00
55610;BME280;41486;52.502;13.486;2023-04-15T06:00:08;100020.63;;;9.50;100.00
55610;BME280;41486;52.502;13.486;2023-04-15T06:02:37;100022.88;;;9.54;100.00
55610;BME280;41486;52.502;13.486;2023-04-15T06:05:08;100016.03;;;9.42;100.00
55610;BME280;41486;52.502;13.486;2023-04-15T06:07:38;100019.69;;;9.51;100.00
55610;BME280;41486;52.502;13.486;2023-04-15T06:10:08;100018.28;;;9.46;100.00
55610;BME280;41486;52.502;13.486;2023-04-15T06:12:38;100013.75;;;9.49;100.00
55610;BME280;41486;52.502;13.486;2023-04-15T06:15:07;100012.91;;;9.48;100.00
55610;BME280;41486;52.502;13.486;2023-04-15T06:17:38;100013.63;;;9.50;100.00
55610;BME280;41486;52.502;13.486;2023-04-15T06:20:10;100017.53;;;9.56;100.00
55610;BME280;41486;52.502;13.486;2023-04-15T06:22:39;100012.94;;;9.69;100.00
55610;BME280;41486;52.502;13.486;2023-04-15T06:25:08;100023.94;;;9.63;100.00
55610;BME280;41486;52.502;13.486;2023-04-15T06:27:38;100015.59;;;9.58;100.00
55610;BME280;41486;52.502;13.486;2023-04-15T06:30:08;100020.00;;;9.69;100.00
55610;BME280;41486;52.502;13.486;2023-04-15T06:32:37;100024.72;;;9.75;100.00
55610;BME280;41486;52.502;13.486;2023-04-15T06:35:09;100021.13;;;9.76;100.00
55610;BME280;41486;52.502;13.486;2023-04-15T06:37:38;100024.88;;;9.73;100.00
55610;BME280;41486;52.502;13.486;2023-04-15T06:40:08;100027.06;;;9.78;100.00
55610;BME280;41486;52.502;13.486;2023-04-15T06:42:38;100035.28;;;9.85;100.00
55610;BME280;41486;52.502;13.486;2023-04-15T06:45:08;100038.38;;;9.90;100.00
55610;BME280;41486;52.502;13.486;2023-04-15T06:47:38;100039.22;;;9.90;100.00
55610;BME280;41486;52.502;13.486;2023-04-15T06:50:09;100042.56;;;9.92;100.00
55610;BME280;41486;52.502;13.486;2023-04-15T06:52:39;100045.75;;;9.96;100.00
55610;BME280;41486;52.502;13.486;2023-04-15T06:55:08;100047.09;;;9.90;100.00
55610;BME280;41486;52.502;13.486;2023-04-15T06:57:38;100052.78;;;9.95;100.00
55610;BME280;41486;52.502;13.486;2023-04-15T07:00:08;100051.22;;;10.04;100.00
55610;BME280;41486;52.502;13.486;2023-04-15T07:02:39;100060.09;;;10.13;100.00
55610;BME280;41486;52.502;13.486;2023-04-15T07:05:09;100059.28;;;10.13;100.00
55610;BME280;41486;52.502;13.486;2023-04-15T07:07:39;100059.28;;;10.13;100.00
55610;BME280;41486;52.502;13.486;2023-04-15T07:10:09;100060.50;;;10.08;100.00
55610;BME280;41486;52.502;13.486;2023-04-15T07:12:39;100062.97;;;10.10;100.00
55610;BME280;41486;52.502;13.486;2023-04-15T07:15:09;100076.06;;;10.00;100.00
55610;BME280;41486;52.502;13.486;2023-04-15T07:17:40;100074.41;;;9.99;100.00
55610;BME280;41486;52.502;13.486;2023-04-15T07:20:12;100082.88;;;10.03;100.00
55610;BME280;41486;52.502;13.486;2023-04-15T07:22:41;100074.88;;;10.04;100.00
55610;BME280;41486;52.502;13.486;2023-04-15T07:25:11;100083.72;;;10.03;100.00
55610;BME280;41486;52.502;13.486;2023-04-15T07:27:40;100078.31;;;10.05;100.00
55610;BME280;41486;52.502;13.486;2023-04-15T07:30:10;100085.31;;;10.16;100.00
55610;BME280;41486;52.502;13.486;2023-04-15T07:32:40;100087.88;;;10.06;100.00
55610;BME280;41486;52.502;13.486;2023-04-15T07:35:11;100082.19;;;10.01;100.00
55610;BME280;41486;52.502;13.486;2023-04-15T07:37:41;100091.84;;;10.00;100.00
55610;BME280;41486;52.502;13.486;2023-04-15T07:40:11;100093.66;;;10.00;100.00
55610;BME280;41486;52.502;13.486;2023-04-15T07:42:41;100092.88;;;9.88;100.00
55610;BME280;41486;52.502;13.486;2023-04-15T07:45:11;100093.19;;;9.94;100.00
55610;BME280;41486;52.502;13.486;2023-04-15T07:47:41;100097.09;;;10.00;100.00
55610;BME280;41486;52.502;13.486;2023-04-15T07:50:11;100096.75;;;9.93;100.00
55610;BME280;41486;52.502;13.486;2023-04-15T07:52:41;100092.16;;;9.86;100.00
55610;BME280;41486;52.502;13.486;2023-04-15T07:55:11;100098.03;;;9.78;100.00
55610;BME280;41486;52.502;13.486;2023-04-15T07:57:40;100095.88;;;9.83;100.00
55610;BME280;41486;52.502;13.486;2023-04-15T08:00:10;100102.28;;;9.90;100.00
55610;BME280;41486;52.502;13.486;2023-04-15T08:02:42;100102.09;;;9.82;100.00
55610;BME280;41486;52.502;13.486;2023-04-15T08:05:15;100099.22;;;9.85;100.00
55610;BME280;41486;52.502;13.486;2023-04-15T08:07:44;100104.94;;;9.79;100.00
55610;BME280;41486;52.502;13.486;2023-04-15T08:10:14;100106.91;;;9.77;100.00
55610;BME280;41486;52.502;13.486;2023-04-15T08:12:43;100105.91;;;9.78;100.00
55610;BME280;41486;52.502;13.486;2023-04-15T08:15:16;100114.44;;;9.70;100.00
55610;BME280;41486;52.502;13.486;2023-04-15T08:17:45;100114.66;;;9.67;100.00
55610;BME280;41486;52.502;13.486;2023-04-15T08:20:16;100114.28;;;9.72;100.00
55610;BME280;41486;52.502;13.486;2023-04-15T08:22:45;100117.88;;;9.71;100.00
55610;BME280;41486;52.502;13.486;2023-04-15T08:25:19;100122.56;;;9.67;100.00
55610;BME280;41486;52.502;13.486;2023-04-15T08:27:48;100117.06;;;9.70;100.00
55610;BME280;41486;52.502;13.486;2023-04-15T08:30:17;100114.06;;;9.75;100.00
55610;BME280;41486;52.502;13.486;2023-04-15T08:32:53;100114.78;;;9.77;100.00
55610;BME280;41486;52.502;13.486;2023-04-15T08:35:24;100125.59;;;9.84;100.00
55610;BME280;41486;52.502;13.486;2023-04-15T08:37:54;100119.25;;;9.86;100.00
55610;BME280;41486;52.502;13.486;2023-04-15T08:40:29;100123.81;;;9.84;100.00
55610;BME280;41486;52.502;13.486;2023-04-15T08:43:04;100128.22;;;9.84;100.00
55610;BME280;41486;52.502;13.486;2023-04-15T08:45:40;100134.22;;;9.86;100.00
55610;BME280;41486;52.502;13.486;2023-04-15T08:48:14;100136.38;;;9.81;100.00
55610;BME280;41486;52.502;13.486;2023-04-15T08:50:46;100138.91;;;9.71;100.00
55610;BME280;41486;52.502;13.486;2023-04-15T08:53:16;100137.34;;;9.79;100.00
55610;BME280;41486;52.502;13.486;2023-04-15T08:55:50;100144.00;;;9.84;100.00
55610;BME280;41486;52.502;13.486;2023-04-15T08:58:20;100140.34;;;9.75;100.00
55610;BME280;41486;52.502;13.486;2023-04-15T09:00:49;100133.84;;;9.90;100.00
55610;BME280;41486;52.502;13.486;2023-04-15T09:03:19;100133.75;;;9.81;100.00
55610;BME280;41486;52.502;13.486;2023-04-15T09:05:50;100131.66;;;9.95;100.00
55610;BME280;41486;52.502;13.486;2023-04-15T09:08:20;100132.94;;;10.01;100.00
55610;BME280;41486;52.502;13.486;2023-04-15T09:10:49;100139.13;;;10.12;100.00
55610;BME280;41486;52.502;13.486;2023-04-15T09:13:20;100145.00;;;10.04;100.00
55610;BME280;41486;52.502;13.486;2023-04-15T09:15:49;100140.69;;;10.03;100.00
55610;BME280;41486;52.502;13.486;2023-04-15T09:18:26;100146.81;;;10.03;100.00
55610;BME280;41486;52.502;13.486;2023-04-15T09:21:08;100145.41;;;10.20;100.00
55610;BME280;41486;52.502;13.486;2023-04-15T09:23:56;100146.34;;;10.19;100.00
55610;BME280;41486;52.502;13.486;2023-04-15T09:26:32;100143.72;;;10.19;100.00
55610;BME280;41486;52.502;13.486;2023-04-15T09:29:03;100155.41;;;10.26;100.00
55610;BME280;41486;52.502;13.486;2023-04-15T09:31:37;100156.34;;;10.25;100.00
55610;BME280;41486;52.502;13.486;2023-04-15T09:34:07;100155.19;;;10.18;100.00
55610;BME280;41486;52.502;13.486;2023-04-15T09:36:52;100164.53;;;10.22;100.00
55610;BME280;41486;52.502;13.486;2023-04-15T09:39:21;100158.41;;;10.22;100.00
55610;BME280;41486;52.502;13.486;2023-04-15T09:42:03;100167.88;;;10.24;100.00
55610;BME280;41486;52.502;13.486;2023-04-15T09:44:33;100165.84;;;10.17;100.00
55610;BME280;41486;52.502;13.486;2023-04-15T09:47:29;100169.06;;;10.20;100.00
55610;BME280;41486;52.502;13.486;2023-04-15T09:49:59;100176.38;;;10.17;100.00
55610;BME280;41486;52.502;13.486;2023-04-15T09:52:40;100174.25;;;10.10;100.00
55610;BME280;41486;52.502;13.486;2023-04-15T09:55:10;100175.94;;;10.12;100.00
55610;BME280;41486;52.502;13.486;2023-04-15T09:57:44;100178.41;;;10.13;100.00
55610;BME280;41486;52.502;13.486;2023-04-15T10:00:14;100185.72;;;10.09;100.00
55610;BME280;41486;52.502;13.486;2023-04-15T10:02:44;100185.00;;;10.07;100.00
55610;BME280;41486;52.502;13.486;2023-04-15T10:05:17;100192.06;;;10.07;100.00
55610;BME280;41486;52.502;13.486;2023-04-15T10:07:48;100192.59;;;10.01;100.00
55610;BME280;41486;52.502;13.486;2023-04-15T10:10:18;100196.16;;;10.00;100.00
55610;BME280;41486;52.502;13.486;2023-04-15T10:12:48;100193.41;;;10.01;100.00
55610;BME280;41486;52.502;13.486;2023-04-15T10:15:20;100197.47;;;10.05;100.00
55610;BME280;41486;52.502;13.486;2023-04-15T10:17:49;100196.63;;;10.05;100.00
55610;BME280;41486;52.502;13.486;2023-04-15T10:20:21;100206.19;;;10.06;100.00
55610;BME280;41486;52.502;13.486;2023-04-15T10:22:53;100203.19;;;10.10;100.00
55610;BME280;41486;52.502;13.486;2023-04-15T10:25:24;100209.59;;;10.18;100.00
55610;BME280;41486;52.502;13.486;2023-04-15T10:27:55;100200.75;;;10.19;100.00
55610;BME280;41486;52.502;13.486;2023-04-15T10:30:25;100198.44;;;10.25;100.00
55610;BME280;41486;52.502;13.486;2023-04-15T10:32:55;100197.81;;;10.33;100.00
55610;BME280;41486;52.502;13.486;2023-04-15T10:35:25;100192.22;;;10.38;100.00
55610;BME280;41486;52.502;13.486;2023-04-15T10:37:56;100198.19;;;10.40;100.00
55610;BME280;41486;52.502;13.486;2023-04-15T10:40:27;100203.31;;;10.41;100.00
55610;BME280;41486;52.502;13.486;2023-04-15T10:42:59;100205.44;;;10.48;100.00
55610;BME280;41486;52.502;13.486;2023-04-15T10:45:32;100206.00;;;10.51;100.00
55610;BME280;41486;52.502;13.486;2023-04-15T10:48:03;100209.72;;;10.49;100.00
55610;BME280;41486;52.502;13.486;2023-04-15T10:50:32;100213.25;;;10.38;100.00
55610;BME280;41486;52.502;13.486;2023-04-15T10:53:03;100208.09;;;10.36;100.00
55610;BME280;41486;52.502;13.486;2023-04-15T10:55:33;100202.09;;;10.46;100.00
55610;BME280;41486;52.502;13.486;2023-04-15T10:58:03;100210.69;;;10.48;100.00
55610;BME280;41486;52.502;13.486;2023-04-15T11:00:36;100218.34;;;10.51;100.00
55610;BME280;41486;52.502;13.486;2023-04-15T11:03:07;100216.81;;;10.48;100.00
55610;BME280;41486;52.502;13.486;2023-04-15T11:05:58;100223.53;;;10.62;100.00
55610;BME280;41486;52.502;13.486;2023-04-15T11:09:03;100221.88;;;10.61;100.00
55610;BME280;41486;52.502;13.486;2023-04-15T11:12:04;100227.31;;;10.48;100.00
55610;BME280;41486;52.502;13.486;2023-04-15T11:14:38;100228.28;;;10.36;100.00
55610;BME280;41486;52.502;13.486;2023-04-15T11:17:08;100240.00;;;10.43;100.00
55610;BME280;41486;52.502;13.486;2023-04-15T11:19:37;100237.00;;;10.90;100.00
55610;BME280;41486;52.502;13.486;2023-04-15T11:22:08;100228.78;;;11.04;100.00
55610;BME280;41486;52.502;13.486;2023-04-15T11:24:47;100236.56;;;10.85;100.00
55610;BME280;41486;52.502;13.486;2023-04-15T11:27:21;100238.69;;;10.70;100.00
55610;BME280;41486;52.502;13.486;2023-04-15T11:29:50;100239.63;;;11.11;100.00
55610;BME280;41486;52.502;13.486;2023-04-15T11:32:20;100246.81;;;10.67;100.00
55610;BME280;41486;52.502;13.486;2023-04-15T11:34:50;100252.63;;;10.82;100.00
55610;BME280;41486;52.502;13.486;2023-04-15T11:37:27;100260.50;;;11.03;100.00
55610;BME280;41486;52.502;13.486;2023-04-15T11:39:57;100255.09;;;10.62;100.00
55610;BME280;41486;52.502;13.486;2023-04-15T11:42:27;100259.34;;;10.53;100.00
55610;BME280;41486;52.502;13.486;2023-04-15T11:45:14;100263.25;;;10.59;100.00
55610;BME280;41486;52.502;13.486;2023-04-15T11:47:51;100264.34;;;10.56;100.00
55610;BME280;41486;52.502;13.486;2023-04-15T11:50:22;100259.59;;;10.71;100.00
55610;BME280;41486;52.502;13.486;2023-04-15T11:52:53;100273.47;;;11.16;100.00
55610;BME280;41486;52.502;13.486;2023-04-15T11:55:23;100270.50;;;10.67;100.00
55610;BME280;41486;52.502;13.486;2023-04-15T11:58:05;100273.66;;;11.55;100.00
55610;BME280;41486;52.502;13.486;2023-04-15T12:00:34;100272.88;;;11.64;100.00
55610;BME280;41486;52.502;13.486;2023-04-15T12:03:22;100268.91;;;11.49;100.00
55610;BME280;41486;52.502;13.486;2023-04-15T12:06:11;100280.41;;;11.48;100.00
55610;BME280;41486;52.502;13.486;2023-04-15T12:08:59;100284.44;;;10.79;100.00
55610;BME280;41486;52.502;13.486;2023-04-15T12:11:34;100288.66;;;10.81;100.00
55610;BME280;41486;52.502;13.486;2023-04-15T12:14:05;100288.69;;;11.12;100.00
55610;BME280;41486;52.502;13.486;2023-04-15T12:16:35;100280.03;;;10.79;100.00
55610;BME280;41486;52.502;13.486;2023-04-15T12:19:18;100285.53;;;10.76;100.00
55610;BME280;41486;52.502;13.486;2023-04-15T12:21:48;100295.75;;;10.69;100.00
55610;BME280;41486;52.502;13.486;2023-04-15T12:24:19;100291.84;;;10.85;100.00
55610;BME280;41486;52.502;13.486;2023-04-15T12:26:50;100300.31;;;11.10;100.00
55610;BME280;41486;52.502;13.486;2023-04-15T12:29:23;100288.94;;;10.88;100.00
55610;BME280;41486;52.502;13.486;2023-04-15T12:31:53;100299.03;;;11.25;100.00
55610;BME280;41486;52.502;13.486;2023-04-15T12:34:28;100300.81;;;11.03;100.00
55610;BME280;41486;52.502;13.486;2023-04-15T12:36:58;100296.34;;;11.46;100.00
55610;BME280;41486;52.502;13.486;2023-04-15T12:39:27;100305.25;;;11.24;100.00
55610;BME280;41486;52.502;13.486;2023-04-15T12:41:58;100305.41;;;11.01;100.00
55610;BME280;41486;52.502;13.486;2023-04-15T12:44:27;100302.31;;;10.96;100.00
55610;BME280;41486;52.502;13.486;2023-04-15T12:46:55;100304.13;;;10.96;100.00
55610;BME280;41486;52.502;13.486;2023-04-15T12:49:24;100312.34;;;10.81;100.00
55610;BME280;41486;52.502;13.486;2023-04-15T12:51:55;100317.78;;;11.11;100.00
55610;BME280;41486;52.502;13.486;2023-04-15T12:54:23;100317.72;;;11.01;100.00
55610;BME280;41486;52.502;13.486;2023-04-15T12:56:52;100323.16;;;10.88;100.00
55610;BME280;41486;52.502;13.486;2023-04-15T12:59:22;100326.28;;;10.93;100.00